createdAt,value
2022-09-02T00:02:09.895Z,24.31
2022-09-02T00:04:37.978Z,24.27
2022-09-02T00:07:06.068Z,24.26
2022-09-02T00:09:34.055Z,24.22
2022-09-02T00:12:03.697Z,24.20
2022-09-02T00:14:34.110Z,24.19
2022-09-02T00:17:02.266Z,24.16
2022-09-02T00:19:30.675Z,24.15
2022-09-02T00:21:59.101Z,24.14
2022-09-02T00:24:27.114Z,24.12
2022-09-02T00:26:56.640Z,24.11
2022-09-02T00:29:26.517Z,24.13
2022-09-02T00:31:54.606Z,24.15
2022-09-02T00:34:22.749Z,24.16
2022-09-02T00:36:50.846Z,24.17
2022-09-02T00:39:18.886Z,24.17
2022-09-02T00:41:46.982Z,24.17
2022-09-02T00:44:16.134Z,24.14
2022-09-02T00:46:45.789Z,24.15
2022-09-02T00:49:15.565Z,24.10
2022-09-02T00:51:48.194Z,24.14
2022-09-02T00:54:18.063Z,24.12
2022-09-02T00:56:46.391Z,24.11
2022-09-02T00:59:16.451Z,24.02
2022-09-02T01:01:45.982Z,24.08
2022-09-02T01:04:14.080Z,24.08
2022-09-02T01:06:42.087Z,24.07
2022-09-02T01:09:12.945Z,24.08
2022-09-02T01:11:42.016Z,24.04
2022-09-02T01:14:10.266Z,24.02
2022-09-02T01:16:42.170Z,23.97
2022-09-02T01:19:17.619Z,23.96
2022-09-02T01:21:48.988Z,23.93
2022-09-02T01:24:17.494Z,23.90
2022-09-02T01:26:45.544Z,23.86
2022-09-02T01:29:13.519Z,23.83
2022-09-02T01:31:41.615Z,23.79
2022-09-02T01:34:10.022Z,23.78
2022-09-02T01:36:39.203Z,23.76
2022-09-02T01:39:08.735Z,23.76
2022-09-02T01:41:36.707Z,23.74
2022-09-02T01:44:05.637Z,23.73
2022-09-02T01:46:34.424Z,23.72
2022-09-02T01:49:03.000Z,23.66
2022-09-02T01:51:31.424Z,23.64
2022-09-02T01:53:59.401Z,23.59
2022-09-02T01:56:28.751Z,23.54
2022-09-02T01:58:57.439Z,23.49
2022-09-02T02:01:25.563Z,23.44
2022-09-02T02:03:53.542Z,23.39
2022-09-02T02:06:21.589Z,23.31
2022-09-02T02:08:49.565Z,23.25
2022-09-02T02:11:20.473Z,23.19
2022-09-02T02:13:49.869Z,23.15
2022-09-02T02:16:18.097Z,23.09
2022-09-02T02:18:46.168Z,23.03
2022-09-02T02:21:14.352Z,22.97
2022-09-02T02:23:42.361Z,22.93
2022-09-02T02:28:43.757Z,22.78
2022-09-02T02:31:13.222Z,22.71
2022-09-02T02:33:41.379Z,22.63
2022-09-02T02:36:09.793Z,22.56
2022-09-02T02:38:38.412Z,22.51
2022-09-02T02:41:07.132Z,22.45
2022-09-02T02:43:35.155Z,22.41
2022-09-02T02:46:03.194Z,22.34
2022-09-02T02:48:32.849Z,22.28
2022-09-02T02:51:00.861Z,22.23
2022-09-02T02:53:29.747Z,22.19
2022-09-02T02:55:57.893Z,22.13
2022-09-02T02:58:26.031Z,22.13
2022-09-02T03:00:54.055Z,22.12
2022-09-02T03:03:22.626Z,22.10
2022-09-02T03:05:53.119Z,22.08
2022-09-02T03:08:21.832Z,22.06
2022-09-02T03:10:51.920Z,22.07
2022-09-02T03:13:20.426Z,22.06
2022-09-02T03:15:48.501Z,22.04
2022-09-02T03:18:16.498Z,22.06
2022-09-02T03:20:45.057Z,22.06
2022-09-02T03:23:14.849Z,22.08
2022-09-02T03:25:43.316Z,22.10
2022-09-02T03:28:11.336Z,22.13
2022-09-02T03:30:40.109Z,22.15
2022-09-02T03:33:08.135Z,22.18
2022-09-02T03:35:39.145Z,22.22
2022-09-02T03:38:07.141Z,22.22
2022-09-02T03:40:36.681Z,22.20
2022-09-02T03:43:05.577Z,22.19
2022-09-02T03:45:33.798Z,22.16
2022-09-02T03:48:01.858Z,22.11
2022-09-02T03:50:31.433Z,22.04
2022-09-02T03:52:59.879Z,21.95
2022-09-02T03:55:28.057Z,21.95
2022-09-02T03:57:57.469Z,21.90
2022-09-02T04:00:25.894Z,21.90
2022-09-02T04:02:55.373Z,21.88
2022-09-02T04:05:23.625Z,21.92
2022-09-02T04:07:52.688Z,21.93
2022-09-02T04:10:21.978Z,21.93
2022-09-02T04:12:50.113Z,21.92
2022-09-02T04:15:20.193Z,21.87
2022-09-02T04:17:48.172Z,21.83
2022-09-02T04:20:16.616Z,21.79
2022-09-02T04:22:44.642Z,21.74
2022-09-02T04:25:12.704Z,21.71
2022-09-02T04:27:40.712Z,21.66
2022-09-02T04:30:09.563Z,21.64
2022-09-02T04:32:40.848Z,21.65
2022-09-02T04:35:09.280Z,21.67
2022-09-02T04:37:37.320Z,21.68
2022-09-02T04:40:05.977Z,21.70
2022-09-02T04:42:34.485Z,21.71
2022-09-02T04:45:02.725Z,21.72
2022-09-02T04:47:30.893Z,21.71
2022-09-02T04:50:00.290Z,21.72
2022-09-02T04:52:28.392Z,21.71
2022-09-02T04:54:56.488Z,21.68
2022-09-02T04:57:24.503Z,21.65
2022-09-02T04:59:52.534Z,21.62
2022-09-02T05:02:20.789Z,21.59
2022-09-02T05:04:49.450Z,21.53
2022-09-02T05:07:18.923Z,21.50
2022-09-02T05:09:46.914Z,21.43
2022-09-02T05:12:18.678Z,21.37
2022-09-02T05:14:49.118Z,21.35
2022-09-02T05:17:17.147Z,21.34
2022-09-02T05:19:45.115Z,21.34
2022-09-02T05:22:13.138Z,21.35
2022-09-02T05:24:43.368Z,21.38
2022-09-02T05:27:11.477Z,21.39
2022-09-02T05:29:40.638Z,21.35
2022-09-02T05:32:11.086Z,21.38
2022-09-02T05:34:48.241Z,21.38
2022-09-02T05:37:25.467Z,21.36
2022-09-02T05:39:57.979Z,21.33
2022-09-02T05:42:33.694Z,21.29
2022-09-02T05:45:02.295Z,21.27
2022-09-02T05:47:36.719Z,21.07
2022-09-02T05:50:08.061Z,21.26
2022-09-02T05:52:36.296Z,21.06
2022-09-02T05:55:09.729Z,20.91
2022-09-02T05:57:38.073Z,21.32
2022-09-02T06:00:07.715Z,20.99
2022-09-02T06:02:35.800Z,21.42
2022-09-02T06:05:04.221Z,21.46
2022-09-02T06:07:35.838Z,21.54
2022-09-02T06:10:05.959Z,21.61
2022-09-02T06:12:34.161Z,21.68
2022-09-02T06:15:03.040Z,21.74
2022-09-02T06:17:31.125Z,21.79
2022-09-02T06:19:59.132Z,21.87
2022-09-02T06:22:27.815Z,21.95
2022-09-02T06:24:56.097Z,22.01
2022-09-02T06:27:25.765Z,22.11
2022-09-02T06:29:53.802Z,22.19
2022-09-02T06:32:21.883Z,22.24
2022-09-02T06:34:49.943Z,22.32
2022-09-02T06:37:18.022Z,22.18
2022-09-02T06:39:46.959Z,22.42
2022-09-02T06:42:15.213Z,22.51
2022-09-02T06:44:45.067Z,22.63
2022-09-02T06:47:13.113Z,22.72
2022-09-02T06:49:41.628Z,22.81
2022-09-02T06:52:10.043Z,22.89
2022-09-02T06:54:38.092Z,22.99
2022-09-02T06:57:06.307Z,23.04
2022-09-02T06:59:34.493Z,23.09
2022-09-02T07:02:04.322Z,23.19
2022-09-02T07:04:52.159Z,23.24
2022-09-02T07:07:22.726Z,23.27
2022-09-02T07:09:50.917Z,23.36
2022-09-02T07:12:19.693Z,23.45
2022-09-02T07:14:47.716Z,23.53
2022-09-02T07:17:18.072Z,23.64
2022-09-02T07:19:46.211Z,23.71
2022-09-02T07:22:14.187Z,23.79
2022-09-02T07:24:47.034Z,23.88
2022-09-02T07:27:15.272Z,23.98
2022-09-02T07:29:44.220Z,24.10
2022-09-02T07:32:12.259Z,24.21
2022-09-02T07:34:41.662Z,24.29
2022-09-02T07:37:11.098Z,24.39
2022-09-02T07:39:39.426Z,24.49
2022-09-02T07:42:08.273Z,24.56
2022-09-02T07:44:36.786Z,24.63
2022-09-02T07:47:05.172Z,24.69
2022-09-02T07:50:15.803Z,24.73
2022-09-02T07:52:22.657Z,24.75
2022-09-02T07:54:52.996Z,24.75
2022-09-02T07:57:21.146Z,24.77
2022-09-02T07:59:50.535Z,24.78
2022-09-02T08:02:19.335Z,24.82
2022-09-02T08:04:47.406Z,24.84
2022-09-02T08:07:16.908Z,24.84
2022-09-02T08:09:46.322Z,24.84
2022-09-02T08:12:15.894Z,24.89
2022-09-02T08:14:45.851Z,24.95
2022-09-02T08:17:14.367Z,25.01
2022-09-02T08:19:44.613Z,25.06
2022-09-02T08:22:12.619Z,25.08
2022-09-02T08:24:40.653Z,25.11
2022-09-02T08:27:10.033Z,25.13
2022-09-02T08:29:38.069Z,25.15
2022-09-02T08:32:06.902Z,25.18
2022-09-02T08:34:35.175Z,25.24
2022-09-02T08:37:03.202Z,25.32
2022-09-02T08:39:31.323Z,25.36
2022-09-02T08:42:04.311Z,25.41
2022-09-02T08:44:34.545Z,25.50
2022-09-02T08:47:02.847Z,25.55
2022-09-02T08:49:31.789Z,25.53
2022-09-02T08:52:01.037Z,25.58
2022-09-02T08:54:32.555Z,25.67
2022-09-02T08:57:00.610Z,25.79
2022-09-02T08:59:29.491Z,25.92
2022-09-02T09:02:03.374Z,25.98
2022-09-02T09:04:44.311Z,26.06
2022-09-02T09:07:18.795Z,26.08
2022-09-02T09:09:56.703Z,26.16
2022-09-02T09:12:28.709Z,26.24
2022-09-02T09:14:59.421Z,26.30
2022-09-02T09:17:30.447Z,26.41
2022-09-02T09:20:00.687Z,26.49
2022-09-02T09:22:31.441Z,26.64
2022-09-02T09:24:59.504Z,26.82
2022-09-02T09:27:28.347Z,27.00
2022-09-02T09:29:56.385Z,27.09
2022-09-02T09:32:27.313Z,27.10
2022-09-02T09:35:03.292Z,27.09
2022-09-02T09:37:36.580Z,27.00
2022-09-02T09:40:23.540Z,26.96
2022-09-02T09:42:53.168Z,26.98
2022-09-02T09:45:22.803Z,26.97
2022-09-02T09:48:18.307Z,27.01
2022-09-02T09:50:48.373Z,27.03
2022-09-02T09:53:18.407Z,27.17
2022-09-02T09:55:54.704Z,27.26
2022-09-02T09:58:23.269Z,27.36
2022-09-02T10:01:00.650Z,27.40
2022-09-02T10:03:32.924Z,27.43
2022-09-02T10:06:19.072Z,27.41
2022-09-02T10:08:52.197Z,27.48
2022-09-02T10:11:22.783Z,27.53
2022-09-02T10:13:50.769Z,27.61
2022-09-02T10:16:46.160Z,27.79
2022-09-02T10:19:19.363Z,27.88
2022-09-02T10:22:00.203Z,28.01
2022-09-02T10:24:38.528Z,28.06
2022-09-02T10:27:09.149Z,28.07
2022-09-02T10:29:43.123Z,28.06
2022-09-02T10:32:23.021Z,28.06
2022-09-02T10:34:54.902Z,28.08
2022-09-02T10:37:25.290Z,28.14
2022-09-02T10:40:10.780Z,28.33
2022-09-02T10:42:47.414Z,28.48
2022-09-02T10:45:18.228Z,28.60
2022-09-02T10:47:48.563Z,28.72
2022-09-02T10:50:21.810Z,28.82
2022-09-02T10:53:07.404Z,28.89
2022-09-02T10:55:41.808Z,28.96
2022-09-02T10:58:11.680Z,29.10
2022-09-02T11:00:40.648Z,29.19
2022-09-02T11:03:15.161Z,29.25
2022-09-02T11:05:45.008Z,29.29
2022-09-02T11:08:15.947Z,29.24
2022-09-02T11:10:47.271Z,29.29
2022-09-02T11:13:19.320Z,29.42
2022-09-02T11:15:48.714Z,29.64
2022-09-02T11:18:19.989Z,29.67
2022-09-02T11:20:50.827Z,29.74
2022-09-02T11:23:23.250Z,29.92
2022-09-02T11:25:55.168Z,30.32
2022-09-02T11:28:31.943Z,30.69
2022-09-02T11:31:03.847Z,31.12
2022-09-02T11:33:46.865Z,31.58
2022-09-02T11:36:15.027Z,31.76
2022-09-02T11:38:51.266Z,31.84
2022-09-02T11:41:35.933Z,32.03
2022-09-02T11:44:14.660Z,32.24
2022-09-02T11:46:55.255Z,32.45
2022-09-02T11:49:38.336Z,32.39
2022-09-02T11:52:12.012Z,32.44
2022-09-02T11:54:42.443Z,32.44
2022-09-02T11:57:12.793Z,32.32
2022-09-02T12:00:03.718Z,32.09
2022-09-02T12:02:37.627Z,32.23
2022-09-02T12:05:43.084Z,32.69
2022-09-02T12:08:13.477Z,33.12
2022-09-02T12:11:04.939Z,33.55
2022-09-02T12:13:34.567Z,33.92
2022-09-02T12:16:38.852Z,34.23
2022-09-02T12:19:29.578Z,34.65
2022-09-02T12:22:38.888Z,35.05
2022-09-02T12:25:43.403Z,35.40
2022-09-02T12:28:19.041Z,35.23
2022-09-02T12:31:15.675Z,34.96
2022-09-02T12:33:44.814Z,34.69
2022-09-02T12:36:52.135Z,34.67
2022-09-02T12:39:48.103Z,34.59
2022-09-02T12:42:20.805Z,34.49
2022-09-02T12:44:52.412Z,34.69
2022-09-02T12:47:29.391Z,35.07
2022-09-02T12:50:03.663Z,35.39
2022-09-02T12:52:46.679Z,35.72
2022-09-02T12:55:19.599Z,35.98
2022-09-02T12:57:49.801Z,36.16
2022-09-02T13:00:28.170Z,36.35
2022-09-02T13:03:02.750Z,36.56
2022-09-02T13:05:33.418Z,36.76
2022-09-02T13:08:34.762Z,37.07
2022-09-02T13:11:37.199Z,37.55
2022-09-02T13:14:27.533Z,37.83
2022-09-02T13:17:25.739Z,37.61
2022-09-02T13:20:30.861Z,36.98
2022-09-02T13:23:42.758Z,36.39
2022-09-02T13:26:48.455Z,36.10
2022-09-02T13:29:37.395Z,36.18
2022-09-02T13:32:14.284Z,36.66
2022-09-02T13:34:42.694Z,37.02
2022-09-02T13:37:28.788Z,37.09
2022-09-02T13:39:57.026Z,36.70
2022-09-02T13:42:26.070Z,36.34
2022-09-02T13:45:12.490Z,35.82
2022-09-02T13:47:44.707Z,35.43
2022-09-02T13:50:13.531Z,35.02
2022-09-02T13:55:29.914Z,34.39
2022-09-02T13:57:59.305Z,33.88
2022-09-02T14:00:29.689Z,33.37
2022-09-02T14:03:01.153Z,32.93
2022-09-02T14:05:29.158Z,32.56
2022-09-02T14:08:00.100Z,32.28
2022-09-02T14:10:29.047Z,32.23
2022-09-02T14:12:57.153Z,32.38
2022-09-02T14:15:27.017Z,32.53
2022-09-02T14:18:18.559Z,32.70
2022-09-02T14:20:57.920Z,32.51
2022-09-02T14:23:26.101Z,32.32
2022-09-02T14:25:55.817Z,32.16
2022-09-02T14:28:24.702Z,32.03
2022-09-02T14:30:57.161Z,31.84
2022-09-02T14:33:29.287Z,31.64
2022-09-02T14:36:01.193Z,31.44
2022-09-02T14:38:30.344Z,31.24
2022-09-02T14:41:02.537Z,31.07
2022-09-02T14:43:31.223Z,30.97
2022-09-02T14:46:09.427Z,30.87
2022-09-02T14:48:39.810Z,30.75
2022-09-02T14:51:08.486Z,30.67
2022-09-02T14:53:37.586Z,30.61
2022-09-02T14:56:06.483Z,30.53
2022-09-02T14:58:34.500Z,30.43
2022-09-02T15:01:02.769Z,30.28
2022-09-02T15:03:31.499Z,30.13
2022-09-02T15:06:00.791Z,29.95
2022-09-02T15:08:28.771Z,29.80
2022-09-02T15:10:58.888Z,29.66
2022-09-02T15:13:28.944Z,29.48
2022-09-02T15:15:59.461Z,29.34
2022-09-02T15:18:27.593Z,29.22
2022-09-02T15:20:55.504Z,29.07
2022-09-02T15:23:24.854Z,28.81
2022-09-02T15:25:54.238Z,28.55
2022-09-02T15:28:22.285Z,28.38
2022-09-02T15:30:50.324Z,28.26
2022-09-02T15:33:18.720Z,28.14
2022-09-02T15:35:47.637Z,28.01
2022-09-02T15:38:15.755Z,27.93
2022-09-02T15:40:45.329Z,27.74
2022-09-02T15:43:13.318Z,27.43
2022-09-02T15:45:42.076Z,27.22
2022-09-02T15:48:10.496Z,26.93
2022-09-02T15:50:38.522Z,26.54
2022-09-02T15:53:06.608Z,26.16
2022-09-02T15:55:34.649Z,25.73
2022-09-02T15:58:04.056Z,25.28
2022-09-02T16:00:34.828Z,24.87
2022-09-02T16:03:03.456Z,24.47
2022-09-02T16:05:32.739Z,24.17
2022-09-02T16:08:01.742Z,23.98
2022-09-02T16:10:30.300Z,23.90
2022-09-02T16:13:00.802Z,23.90
2022-09-02T16:15:30.834Z,23.88
2022-09-02T16:18:02.815Z,23.92
2022-09-02T16:20:31.486Z,24.01
2022-09-02T16:22:59.842Z,24.18
2022-09-02T16:25:28.321Z,24.36
2022-09-02T16:27:56.954Z,24.50
2022-09-02T16:30:25.799Z,24.61
2022-09-02T16:32:55.874Z,24.70
2022-09-02T16:35:23.786Z,24.80
2022-09-02T16:37:53.105Z,24.91
2022-09-02T16:40:22.180Z,25.04
2022-09-02T16:42:50.264Z,25.16
2022-09-02T16:45:18.356Z,25.34
2022-09-02T16:47:47.848Z,25.58
2022-09-02T16:50:17.374Z,25.91
2022-09-02T16:52:45.474Z,26.06
2022-09-02T16:55:17.856Z,26.09
2022-09-02T16:57:45.765Z,26.06
2022-09-02T17:00:15.379Z,26.05
2022-09-02T17:02:44.034Z,26.02
2022-09-02T17:05:14.401Z,25.98
2022-09-02T17:07:44.360Z,25.94
2022-09-02T17:10:12.420Z,25.91
2022-09-02T17:12:43.063Z,25.90
2022-09-02T17:15:11.799Z,26.07
2022-09-02T17:17:40.136Z,26.23
2022-09-02T17:20:08.952Z,26.26
2022-09-02T17:22:36.899Z,26.20
2022-09-02T17:25:07.248Z,26.15
2022-09-02T17:27:36.350Z,26.11
2022-09-02T17:30:04.862Z,26.02
2022-09-02T17:32:32.811Z,25.95
2022-09-02T17:35:02.297Z,25.89
2022-09-02T17:37:30.417Z,25.80
2022-09-02T17:39:58.510Z,25.72
2022-09-02T17:42:26.868Z,25.66
2022-09-02T17:44:55.269Z,25.62
2022-09-02T17:47:23.650Z,25.57
2022-09-02T17:49:52.348Z,25.52
2022-09-02T17:52:21.272Z,25.44
2022-09-02T17:54:50.215Z,25.39
2022-09-02T17:57:33.914Z,25.33
2022-09-02T18:00:09.196Z,25.29
2022-09-02T18:03:20.266Z,25.26
2022-09-02T18:05:57.476Z,25.19
2022-09-02T18:08:31.819Z,25.15
2022-09-02T18:11:04.581Z,25.12
2022-09-02T18:13:40.853Z,25.05
2022-09-02T18:16:23.136Z,25.00
2022-09-02T18:19:04.110Z,24.92
2022-09-02T18:21:38.738Z,24.89
2022-09-02T18:24:08.386Z,24.87
2022-09-02T18:26:45.990Z,24.86
2022-09-02T18:29:20.966Z,24.84
2022-09-02T18:31:52.019Z,24.84
2022-09-02T18:34:30.744Z,24.82
2022-09-02T18:37:05.817Z,24.80
2022-09-02T18:39:51.365Z,24.81
2022-09-02T18:42:25.902Z,24.78
2022-09-02T18:45:00.973Z,24.77
2022-09-02T18:47:32.741Z,24.74
2022-09-02T18:50:02.934Z,24.77
2022-09-02T18:52:31.062Z,24.78
2022-09-02T18:55:02.974Z,24.76
2022-09-02T18:57:33.777Z,24.77
2022-09-02T19:00:04.015Z,24.77
2022-09-02T19:02:36.305Z,24.76
2022-09-02T19:05:07.120Z,24.74
2022-09-02T19:07:53.942Z,24.72
2022-09-02T19:10:22.114Z,24.67
2022-09-02T19:12:50.033Z,24.65
2022-09-02T19:15:19.469Z,24.58
2022-09-02T19:17:49.610Z,24.60
2022-09-02T19:20:17.957Z,24.54
2022-09-02T19:22:48.024Z,24.50
2022-09-02T19:25:17.843Z,24.48
2022-09-02T19:27:45.828Z,24.44
2022-09-02T19:30:15.283Z,24.43
2022-09-02T19:32:46.349Z,24.39
2022-09-02T19:35:16.773Z,24.40
2022-09-02T19:37:47.026Z,24.41
2022-09-02T19:40:17.048Z,24.39
2022-09-02T19:42:44.985Z,24.39
2022-09-02T19:45:16.402Z,24.38
2022-09-02T19:50:34.032Z,24.39
2022-09-02T19:53:01.943Z,24.39
2022-09-02T19:55:29.867Z,24.41
2022-09-02T19:57:59.931Z,24.45
2022-09-02T20:00:27.965Z,24.48
2022-09-02T20:03:00.129Z,24.51
2022-09-02T20:05:28.238Z,24.52
2022-09-02T20:07:56.543Z,24.50
2022-09-02T20:10:27.661Z,24.54
2022-09-02T20:12:56.250Z,24.54
2022-09-02T20:15:24.176Z,24.54
2022-09-02T20:17:52.147Z,24.54
2022-09-02T20:20:22.778Z,24.53
2022-09-02T20:22:51.940Z,24.50
2022-09-02T20:25:20.170Z,24.44
2022-09-02T20:27:55.571Z,24.40
2022-09-02T20:30:29.365Z,24.39
2022-09-02T20:32:59.114Z,24.36
2022-09-02T20:35:45.594Z,24.33
2022-09-02T20:38:24.540Z,24.29
2022-09-02T20:40:57.927Z,24.20
2022-09-02T20:43:48.571Z,24.16
2022-09-02T20:46:31.013Z,24.12
2022-09-02T20:49:12.150Z,24.10
2022-09-02T20:51:45.609Z,24.09
2022-09-02T20:54:19.926Z,24.09
2022-09-02T20:56:51.592Z,24.08
2022-09-02T20:59:22.566Z,24.11
2022-09-02T21:01:50.492Z,24.11
2022-09-02T21:04:31.230Z,24.10
2022-09-02T21:07:02.388Z,24.03
2022-09-02T21:09:36.330Z,23.98
2022-09-02T21:12:07.496Z,23.94
2022-09-02T21:14:38.705Z,23.87
2022-09-02T21:17:08.168Z,23.86
2022-09-02T21:19:37.700Z,23.80
2022-09-02T21:22:10.602Z,23.84
2022-09-02T21:24:40.911Z,23.81
2022-09-02T21:27:12.239Z,23.77
2022-09-02T21:29:41.718Z,23.75
2022-09-02T21:32:11.777Z,23.72
2022-09-02T21:34:40.625Z,23.73
2022-09-02T21:37:10.492Z,23.72
2022-09-02T21:39:39.612Z,23.69
2022-09-02T21:42:16.013Z,23.72
2022-09-02T21:44:50.860Z,23.75
2022-09-02T21:47:21.572Z,23.77
2022-09-02T21:50:00.051Z,23.78
2022-09-02T21:52:33.066Z,23.77
2022-09-02T21:55:04.056Z,23.73
2022-09-02T21:57:44.955Z,23.74
2022-09-02T22:00:14.657Z,23.74
2022-09-02T22:02:52.711Z,23.73
2022-09-02T22:05:30.632Z,23.71
2022-09-02T22:08:02.973Z,23.76
2022-09-02T22:10:33.905Z,23.76
2022-09-02T22:13:03.250Z,23.78
2022-09-02T22:15:37.627Z,23.79
2022-09-02T22:18:11.069Z,23.81
2022-09-02T22:20:45.090Z,23.85
2022-09-02T22:23:22.586Z,23.84
2022-09-02T22:25:51.367Z,23.85
2022-09-02T22:28:22.018Z,23.83
2022-09-02T22:30:53.519Z,23.82
2022-09-02T22:33:24.097Z,23.82
2022-09-02T22:35:55.385Z,23.83
2022-09-02T22:38:27.628Z,23.84
2022-09-02T22:40:57.073Z,23.84
2022-09-02T22:43:28.150Z,23.83
2022-09-02T22:46:14.445Z,23.84
2022-09-02T22:49:02.569Z,23.83
2022-09-02T22:51:49.597Z,23.81
2022-09-02T22:54:18.992Z,23.79
2022-09-02T22:56:50.378Z,23.79
2022-09-02T22:59:35.752Z,23.77
2022-09-02T23:02:09.107Z,23.73
2022-09-02T23:04:48.239Z,23.72
2022-09-02T23:07:16.325Z,23.62
2022-09-02T23:09:45.630Z,23.70
2022-09-02T23:12:23.602Z,23.67
2022-09-02T23:14:53.811Z,23.67
2022-09-02T23:17:33.630Z,23.65
2022-09-02T23:20:09.341Z,23.64
2022-09-02T23:22:47.050Z,23.64
2022-09-02T23:25:48.214Z,23.61
2022-09-02T23:28:17.621Z,23.59
2022-09-02T23:31:01.221Z,23.59
2022-09-02T23:33:40.062Z,23.58
2022-09-02T23:36:15.078Z,23.49
2022-09-02T23:39:01.750Z,23.58
2022-09-02T23:41:31.293Z,23.57
2022-09-02T23:43:59.248Z,23.55
2022-09-02T23:46:32.968Z,23.55
2022-09-02T23:49:05.511Z,23.57
2022-09-02T23:51:35.881Z,23.56
2022-09-02T23:54:11.705Z,23.56
2022-09-02T23:56:58.907Z,23.55
2022-09-02T23:59:43.158Z,23.56
